Time;durP1;ratioP1;P1;durP2;ratioP2;P2;SDS_P1;SDS_P2;PMS_P1;PMS_P2;Temp;Humidity;BMP_temperature;BMP_pressure;BME280_temperature;BME280_humidity;BME280_pressure;Samples;Min_cycle;Max_cycle;Signal;HPM_P1;HPM_P2
2023/12/11 00:01:05;;;;;;;36.55;5.93;;;;;;;;;;5146793;27;20047;-57
2023/12/11 00:03:31;;;;;;;31.90;5.22;;;;;;;;;;5146195;27;20047;-56
2023/12/11 00:05:58;;;;;;;33.17;5.93;;;;;;;;;;5146674;27;20520;-58
2023/12/11 00:08:24;;;;;;;37.22;6.57;;;;;;;;;;5146475;27;20131;-57
2023/12/11 00:10:50;;;;;;;38.80;7.25;;;;;;;;;;5146617;27;20051;-57
2023/12/11 00:13:17;;;;;;;45.63;8.32;;;;;;;;;;5146563;27;21001;-56
2023/12/11 00:15:44;;;;;;;40.42;5.45;;;;;;;;;;5145923;27;20931;-57
2023/12/11 00:18:10;;;;;;;31.08;6.13;;;;;;;;;;5144431;27;20047;-57
2023/12/11 00:20:37;;;;;;;44.50;6.30;;;;;;;;;;5146384;27;20617;-57
2023/12/11 00:23:03;;;;;;;40.60;6.68;;;;;;;;;;5146640;27;20144;-57
2023/12/11 00:25:31;;;;;;;36.55;5.15;;;;;;;;;;5146165;27;20078;-57
2023/12/11 00:27:57;;;;;;;42.30;7.72;;;;;;;;;;5146599;27;20051;-56
2023/12/11 00:30:24;;;;;;;49.90;7.72;;;;;;;;;;5146526;27;20144;-57
2023/12/11 00:32:51;;;;;;;41.63;7.55;;;;;;;;;;5146385;27;20417;-57
2023/12/11 00:35:18;;;;;;;48.03;7.75;;;;;;;;;;5147017;27;20059;-56
2023/12/11 00:37:44;;;;;;;37.58;6.40;;;;;;;;;;5146597;27;20047;-57
2023/12/11 00:40:11;;;;;;;45.30;7.68;;;;;;;;;;5146134;27;20509;-57
2023/12/11 00:42:38;;;;;;;39.80;8.93;;;;;;;;;;5145904;27;20051;-58
2023/12/11 00:45:05;;;;;;;48.72;8.52;;;;;;;;;;5144956;27;20047;-57
2023/12/11 00:47:31;;;;;;;44.45;6.38;;;;;;;;;;5131412;27;20051;-57
2023/12/11 00:49:58;;;;;;;45.42;7.25;;;;;;;;;;5145981;27;20058;-56
2023/12/11 00:52:27;;;;;;;39.47;7.30;;;;;;;;;;5145798;27;20463;-56
2023/12/11 00:54:53;;;;;;;36.97;5.93;;;;;;;;;;5146606;27;20845;-56
2023/12/11 00:57:20;;;;;;;37.40;5.75;;;;;;;;;;5147123;27;20048;-57
2023/12/11 00:59:46;;;;;;;40.33;7.43;;;;;;;;;;5145917;27;20098;-55
2023/12/11 01:02:13;;;;;;;55.05;6.35;;;;;;;;;;5145859;27;20047;-56
2023/12/11 01:04:40;;;;;;;40.90;6.90;;;;;;;;;;5145455;27;20051;-58
2023/12/11 01:07:06;;;;;;;48.97;7.35;;;;;;;;;;5145872;27;20484;-57
2023/12/11 01:09:33;;;;;;;38.55;6.85;;;;;;;;;;5145915;27;20512;-57
2023/12/11 01:11:59;;;;;;;46.03;7.45;;;;;;;;;;5145399;27;20085;-58
2023/12/11 01:14:25;;;;;;;44.00;6.88;;;;;;;;;;5145600;27;20055;-57
2023/12/11 01:16:52;;;;;;;42.55;7.07;;;;;;;;;;5145964;27;20127;-57
2023/12/11 01:19:19;;;;;;;31.55;6.20;;;;;;;;;;5145745;27;20165;-57
2023/12/11 01:21:45;;;;;;;42.20;6.28;;;;;;;;;;5145396;27;20055;-57
2023/12/11 01:24:12;;;;;;;43.95;6.30;;;;;;;;;;5146227;27;20062;-57
2023/12/11 01:26:39;;;;;;;38.78;6.43;;;;;;;;;;5144745;27;20074;-58
2023/12/11 01:29:05;;;;;;;36.92;5.93;;;;;;;;;;5143798;27;20582;-58
2023/12/11 01:31:31;;;;;;;44.33;5.80;;;;;;;;;;5145567;27;20150;-56
2023/12/11 01:33:58;;;;;;;36.60;6.63;;;;;;;;;;5145333;27;20112;-55
2023/12/11 01:36:24;;;;;;;33.72;5.85;;;;;;;;;;5145759;27;20104;-58
2023/12/11 01:38:51;;;;;;;35.08;6.82;;;;;;;;;;5146352;27;20433;-58
2023/12/11 01:41:18;;;;;;;43.22;6.57;;;;;;;;;;5145620;27;20054;-58
2023/12/11 01:43:53;;;;;;;41.10;6.72;;;;;;;;;;5145175;27;20625;-56
2023/12/11 01:46:21;;;;;;;43.97;6.90;;;;;;;;;;5145561;27;20100;-57
2023/12/11 01:48:52;;;;;;;52.42;8.52;;;;;;;;;;5144670;27;20079;-58
2023/12/11 01:51:19;;;;;;;43.13;6.97;;;;;;;;;;5143920;27;20050;-55
2023/12/11 01:53:48;;;;;;;45.03;6.45;;;;;;;;;;5144797;27;20506;-57
2023/12/11 01:56:17;;;;;;;44.92;6.10;;;;;;;;;;5145591;27;20055;-56
2023/12/11 01:58:45;;;;;;;43.33;7.00;;;;;;;;;;5145187;27;20159;-57
2023/12/11 02:01:12;;;;;;;34.90;5.35;;;;;;;;;;5145261;27;20055;-56
2023/12/11 02:03:38;;;;;;;34.10;6.47;;;;;;;;;;5144038;27;20135;-58
2023/12/11 02:06:05;;;;;;;38.08;6.25;;;;;;;;;;5145233;27;20057;-56
2023/12/11 02:08:32;;;;;;;40.00;5.65;;;;;;;;;;5144433;27;20448;-57
2023/12/11 02:10:58;;;;;;;33.58;6.43;;;;;;;;;;5145466;27;20483;-56
2023/12/11 02:13:25;;;;;;;35.13;5.88;;;;;;;;;;5145452;27;20101;-54
2023/12/11 02:15:51;;;;;;;40.65;6.35;;;;;;;;;;5145452;27;20047;-55
2023/12/11 02:18:18;;;;;;;42.30;7.38;;;;;;;;;;5144566;27;20047;-56
2023/12/11 02:20:45;;;;;;;34.38;7.03;;;;;;;;;;5144655;27;20078;-56
2023/12/11 02:23:25;;;;;;;49.50;5.85;;;;;;;;;;5145518;27;20043;-57
2023/12/11 02:25:59;;;;;;;41.83;6.90;;;;;;;;;;5145277;27;20063;-55
2023/12/11 02:28:25;;;;;;;42.08;6.38;;;;;;;;;;5140538;27;20470;-57
2023/12/11 02:30:52;;;;;;;35.25;6.38;;;;;;;;;;5144595;27;20055;-56
2023/12/11 02:33:19;;;;;;;34.58;6.22;;;;;;;;;;5145016;27;20059;-56
2023/12/11 02:35:45;;;;;;;33.90;5.63;;;;;;;;;;5124244;27;20058;-57
2023/12/11 02:38:12;;;;;;;38.72;6.30;;;;;;;;;;5128991;27;20144;-54
2023/12/11 02:40:38;;;;;;;44.53;5.70;;;;;;;;;;5147024;27;20051;-57
2023/12/11 02:43:05;;;;;;;41.58;6.30;;;;;;;;;;5148213;27;20054;-56
2023/12/11 02:45:32;;;;;;;38.03;6.13;;;;;;;;;;5147840;27;20051;-56
2023/12/11 02:48:02;;;;;;;41.08;6.18;;;;;;;;;;5148211;27;20043;-56
2023/12/11 02:50:29;;;;;;;40.67;5.72;;;;;;;;;;5147779;27;20051;-54
2023/12/11 02:52:59;;;;;;;43.30;6.55;;;;;;;;;;5147901;27;20439;-55
2023/12/11 02:55:26;;;;;;;38.20;6.38;;;;;;;;;;5147577;27;20048;-57
2023/12/11 02:57:55;;;;;;;32.55;5.53;;;;;;;;;;5148088;27;20055;-57
2023/12/11 03:00:22;;;;;;;38.45;6.20;;;;;;;;;;5147390;27;20138;-58
2023/12/11 03:02:49;;;;;;;39.67;6.10;;;;;;;;;;5147878;27;20480;-57
2023/12/11 03:05:15;;;;;;;31.33;5.55;;;;;;;;;;5148204;27;20171;-56
2023/12/11 03:07:41;;;;;;;32.95;5.63;;;;;;;;;;5147963;27;20063;-58
2023/12/11 03:10:08;;;;;;;30.50;5.05;;;;;;;;;;5148017;27;20050;-59
2023/12/11 03:12:35;;;;;;;37.92;5.75;;;;;;;;;;5147684;27;20251;-56
2023/12/11 03:15:02;;;;;;;28.63;5.07;;;;;;;;;;5147446;27;20080;-57
2023/12/11 03:17:28;;;;;;;31.30;5.75;;;;;;;;;;5147419;27;20936;-58
2023/12/11 03:19:55;;;;;;;22.92;4.15;;;;;;;;;;5147695;27;20133;-58
2023/12/11 03:22:24;;;;;;;39.58;6.38;;;;;;;;;;5147384;27;20554;-57
2023/12/11 03:24:51;;;;;;;33.25;4.75;;;;;;;;;;5147728;27;20062;-57
2023/12/11 03:27:20;;;;;;;31.85;5.38;;;;;;;;;;5147166;27;20051;-56
2023/12/11 03:29:47;;;;;;;31.42;5.68;;;;;;;;;;5146303;27;20119;-56
2023/12/11 03:32:13;;;;;;;32.28;5.20;;;;;;;;;;5147663;27;20074;-57
2023/12/11 03:34:40;;;;;;;47.92;5.80;;;;;;;;;;5146824;27;20104;-58
2023/12/11 03:37:07;;;;;;;31.60;5.40;;;;;;;;;;5147619;27;20053;-58
2023/12/11 03:39:33;;;;;;;47.75;6.45;;;;;;;;;;5147351;27;20059;-56
2023/12/11 03:41:59;;;;;;;30.10;5.07;;;;;;;;;;5147148;27;20047;-58
2023/12/11 03:44:26;;;;;;;36.90;6.05;;;;;;;;;;5146428;27;20142;-57
2023/12/11 03:46:52;;;;;;;38.22;6.22;;;;;;;;;;5147653;27;20078;-55
2023/12/11 03:49:20;;;;;;;43.42;6.88;;;;;;;;;;5147242;27;20044;-56
2023/12/11 03:51:47;;;;;;;34.08;6.32;;;;;;;;;;5145541;27;20063;-57
2023/12/11 03:54:14;;;;;;;39.42;5.80;;;;;;;;;;5146708;27;20051;-57
2023/12/11 03:56:40;;;;;;;35.05;5.00;;;;;;;;;;5146077;27;20070;-56
2023/12/11 03:59:07;;;;;;;45.10;6.22;;;;;;;;;;5144549;27;20056;-56
2023/12/11 04:01:33;;;;;;;52.00;9.35;;;;;;;;;;5146920;27;20134;-57
2023/12/11 04:04:00;;;;;;;39.15;5.93;;;;;;;;;;5146358;27;20055;-56
2023/12/11 04:06:27;;;;;;;39.95;7.47;;;;;;;;;;5146481;27;20051;-55
2023/12/11 04:08:56;;;;;;;39.92;6.07;;;;;;;;;;5146826;27;20116;-57
2023/12/11 04:11:22;;;;;;;33.80;6.10;;;;;;;;;;5147428;27;20067;-57
2023/12/11 04:13:49;;;;;;;33.20;7.32;;;;;;;;;;5131866;27;20051;-57
2023/12/11 04:16:15;;;;;;;36.38;5.50;;;;;;;;;;5147171;27;20055;-56
2023/12/11 04:18:42;;;;;;;43.22;7.15;;;;;;;;;;5146163;27;20051;-57
2023/12/11 04:21:09;;;;;;;49.35;6.00;;;;;;;;;;5147086;27;20059;-58
2023/12/11 04:23:35;;;;;;;42.67;7.13;;;;;;;;;;5146076;27;20139;-58
2023/12/11 04:26:03;;;;;;;35.88;7.18;;;;;;;;;;5146084;27;20055;-57
2023/12/11 04:28:29;;;;;;;41.65;6.60;;;;;;;;;;5145273;27;20051;-57
2023/12/11 04:30:56;;;;;;;48.28;7.88;;;;;;;;;;5146384;27;20054;-57
2023/12/11 04:33:23;;;;;;;44.10;6.38;;;;;;;;;;5147149;27;20059;-57
2023/12/11 04:35:49;;;;;;;38.05;6.47;;;;;;;;;;5146316;27;20051;-58
2023/12/11 04:38:16;;;;;;;42.17;6.32;;;;;;;;;;5146051;27;20494;-58
2023/12/11 04:40:43;;;;;;;35.13;6.60;;;;;;;;;;5146037;27;20047;-57
2023/12/11 04:43:09;;;;;;;36.25;5.45;;;;;;;;;;5144567;27;20625;-58
2023/12/11 04:45:35;;;;;;;34.15;5.93;;;;;;;;;;5145302;27;20085;-57
2023/12/11 04:48:02;;;;;;;43.40;6.68;;;;;;;;;;5146431;27;20679;-58
2023/12/11 04:50:29;;;;;;;31.48;5.63;;;;;;;;;;5145801;27;20142;-58
2023/12/11 04:52:55;;;;;;;31.25;5.30;;;;;;;;;;5145610;27;20047;-58
2023/12/11 04:55:23;;;;;;;37.70;5.97;;;;;;;;;;5146802;27;20043;-57
2023/12/11 04:57:49;;;;;;;35.30;6.85;;;;;;;;;;5146327;27;20493;-58
2023/12/11 05:00:17;;;;;;;46.95;7.75;;;;;;;;;;5146390;27;20131;-57
2023/12/11 05:02:43;;;;;;;37.70;5.05;;;;;;;;;;5146143;27;20051;-57
2023/12/11 05:05:10;;;;;;;29.52;5.47;;;;;;;;;;5146427;27;20489;-57
2023/12/11 05:07:36;;;;;;;40.80;6.43;;;;;;;;;;5144993;27;20134;-58
2023/12/11 05:10:03;;;;;;;33.85;5.97;;;;;;;;;;5145907;27;20525;-55
2023/12/11 05:12:30;;;;;;;42.17;6.22;;;;;;;;;;5144721;27;20062;-58
2023/12/11 05:14:56;;;;;;;30.90;5.10;;;;;;;;;;5145645;27;20126;-57
2023/12/11 05:17:22;;;;;;;36.42;5.30;;;;;;;;;;5146461;27;20051;-57
2023/12/11 05:19:49;;;;;;;45.63;5.95;;;;;;;;;;5145588;27;20406;-56
2023/12/11 05:22:16;;;;;;;34.63;6.07;;;;;;;;;;5145387;27;20076;-57
2023/12/11 05:24:42;;;;;;;35.90;6.00;;;;;;;;;;5145370;27;20108;-57
2023/12/11 05:27:11;;;;;;;32.33;6.07;;;;;;;;;;5145479;27;20135;-56
2023/12/11 05:29:37;;;;;;;43.75;6.57;;;;;;;;;;5145864;27;20051;-55
2023/12/11 05:32:04;;;;;;;33.65;6.03;;;;;;;;;;5145645;27;20055;-55
2023/12/11 05:34:30;;;;;;;30.25;5.13;;;;;;;;;;5144992;27;20059;-56
2023/12/11 05:36:57;;;;;;;32.80;5.22;;;;;;;;;;5146450;27;20051;-57
2023/12/11 05:39:23;;;;;;;38.67;5.75;;;;;;;;;;5145246;27;20509;-55
2023/12/11 05:41:50;;;;;;;30.42;4.38;;;;;;;;;;5145755;27;20179;-57
2023/12/11 05:44:16;;;;;;;35.53;6.47;;;;;;;;;;5145414;27;20055;-57
2023/12/11 05:46:42;;;;;;;26.35;6.53;;;;;;;;;;5144963;27;20053;-56
2023/12/11 05:49:10;;;;;;;38.35;5.68;;;;;;;;;;5144651;27;20145;-53
2023/12/11 05:51:36;;;;;;;25.17;4.75;;;;;;;;;;5145262;27;20055;-55
2023/12/11 05:54:03;;;;;;;28.42;5.10;;;;;;;;;;5143250;27;20521;-53
2023/12/11 05:56:30;;;;;;;35.50;5.65;;;;;;;;;;5133519;27;20120;-56
2023/12/11 05:58:56;;;;;;;20.58;4.18;;;;;;;;;;5145657;27;20063;-56
2023/12/11 06:01:25;;;;;;;35.75;5.88;;;;;;;;;;5144087;27;20100;-57
2023/12/11 06:03:51;;;;;;;29.75;4.90;;;;;;;;;;5145200;27;20051;-57
2023/12/11 06:06:18;;;;;;;26.23;4.57;;;;;;;;;;5144873;27;20616;-57
2023/12/11 06:08:45;;;;;;;30.73;4.72;;;;;;;;;;5126962;27;20051;-56
2023/12/11 06:11:11;;;;;;;29.85;5.10;;;;;;;;;;5125299;27;20505;-56
2023/12/11 06:13:38;;;;;;;35.78;4.38;;;;;;;;;;5124837;27;20047;-57
2023/12/11 06:16:04;;;;;;;21.90;4.05;;;;;;;;;;5128743;27;20179;-58
2023/12/11 06:18:31;;;;;;;28.17;4.38;;;;;;;;;;5128958;27;20048;-57
2023/12/11 06:20:58;;;;;;;32.05;6.40;;;;;;;;;;5148396;27;20043;-56
2023/12/11 06:23:29;;;;;;;23.38;3.97;;;;;;;;;;5148732;27;20055;-57
2023/12/11 06:25:56;;;;;;;23.83;4.50;;;;;;;;;;5136106;27;20575;-58
2023/12/11 06:28:22;;;;;;;23.05;3.35;;;;;;;;;;5128297;27;20138;-56
2023/12/11 06:30:49;;;;;;;23.80;4.35;;;;;;;;;;5127812;27;20497;-58
2023/12/11 06:33:15;;;;;;;27.00;5.15;;;;;;;;;;5127458;27;20060;-57
2023/12/11 06:35:42;;;;;;;22.55;4.20;;;;;;;;;;5129877;27;20329;-58
2023/12/11 06:38:08;;;;;;;25.98;4.68;;;;;;;;;;5148030;27;20047;-57
2023/12/11 06:40:35;;;;;;;19.45;3.65;;;;;;;;;;5146723;27;20051;-57
2023/12/11 06:43:02;;;;;;;30.67;4.28;;;;;;;;;;5148488;27;20128;-58
2023/12/11 06:45:29;;;;;;;22.60;4.43;;;;;;;;;;5147867;27;20047;-59
2023/12/11 06:48:00;;;;;;;29.52;3.35;;;;;;;;;;5152378;27;20051;-56
2023/12/11 06:50:27;;;;;;;23.52;3.58;;;;;;;;;;5159281;27;20157;-56
2023/12/11 06:52:53;;;;;;;23.17;4.32;;;;;;;;;;5149369;27;20562;-56
2023/12/11 06:55:20;;;;;;;34.58;3.83;;;;;;;;;;5147745;27;20590;-55
2023/12/11 06:57:46;;;;;;;18.02;3.60;;;;;;;;;;5148092;27;20061;-56
2023/12/11 07:00:13;;;;;;;20.05;2.67;;;;;;;;;;5147722;27;20073;-57
2023/12/11 07:02:39;;;;;;;23.13;3.25;;;;;;;;;;5147721;27;20546;-57
2023/12/11 07:05:06;;;;;;;16.80;2.97;;;;;;;;;;5148139;27;20433;-57
2023/12/11 07:07:33;;;;;;;17.95;2.92;;;;;;;;;;5146999;27;20128;-55
2023/12/11 07:10:04;;;;;;;20.10;3.55;;;;;;;;;;5147204;27;20464;-57
2023/12/11 07:12:31;;;;;;;15.57;3.17;;;;;;;;;;5146617;27;20048;-57
2023/12/11 07:14:57;;;;;;;20.77;3.28;;;;;;;;;;5146212;27;21035;-57
2023/12/11 07:17:23;;;;;;;14.43;3.22;;;;;;;;;;5147072;27;20127;-56
2023/12/11 07:19:50;;;;;;;14.77;2.95;;;;;;;;;;5147462;27;20076;-57
2023/12/11 07:22:16;;;;;;;12.18;2.70;;;;;;;;;;5146073;27;20047;-56
2023/12/11 07:24:43;;;;;;;11.77;2.15;;;;;;;;;;5146063;27;20051;-56
2023/12/11 07:27:11;;;;;;;16.45;2.45;;;;;;;;;;5147439;27;20363;-57
2023/12/11 07:29:37;;;;;;;11.25;2.25;;;;;;;;;;5146966;27;20509;-56
2023/12/11 07:32:04;;;;;;;24.75;5.03;;;;;;;;;;5146148;27;20509;-56
2023/12/11 07:34:30;;;;;;;17.50;3.08;;;;;;;;;;5145640;27;20065;-56
2023/12/11 07:36:57;;;;;;;12.52;3.75;;;;;;;;;;5146361;27;20108;-56
2023/12/11 07:39:24;;;;;;;13.68;2.92;;;;;;;;;;5146480;27;20054;-55
2023/12/11 07:41:51;;;;;;;10.20;2.83;;;;;;;;;;5146450;27;20047;-57
2023/12/11 07:44:17;;;;;;;15.07;2.97;;;;;;;;;;5146032;27;20083;-58
2023/12/11 07:46:44;;;;;;;11.82;3.05;;;;;;;;;;5146656;27;20055;-56
2023/12/11 07:49:13;;;;;;;13.25;2.10;;;;;;;;;;5145249;27;20062;-57
2023/12/11 07:51:40;;;;;;;10.88;3.05;;;;;;;;;;5145689;27;20051;-57
2023/12/11 07:54:07;;;;;;;10.30;2.95;;;;;;;;;;5145923;27;20077;-57
2023/12/11 07:56:36;;;;;;;10.98;2.25;;;;;;;;;;5146025;27;20111;-56
2023/12/11 07:59:03;;;;;;;22.30;3.83;;;;;;;;;;5145470;27;20760;-56
2023/12/11 08:01:31;;;;;;;10.90;2.78;;;;;;;;;;5145619;27;20605;-56
2023/12/11 08:03:58;;;;;;;15.27;2.45;;;;;;;;;;5145939;27;20090;-57
2023/12/11 08:06:24;;;;;;;11.43;2.20;;;;;;;;;;5144998;27;20047;-55
2023/12/11 08:08:51;;;;;;;17.83;2.92;;;;;;;;;;5146429;27;20054;-53
2023/12/11 08:11:21;;;;;;;19.73;3.42;;;;;;;;;;5146183;27;20578;-57
2023/12/11 08:13:48;;;;;;;16.70;3.25;;;;;;;;;;5146224;27;20137;-55
2023/12/11 08:16:16;;;;;;;16.77;3.97;;;;;;;;;;5145589;27;20058;-55
2023/12/11 08:18:43;;;;;;;18.70;3.55;;;;;;;;;;5145826;27;20043;-57
2023/12/11 08:21:10;;;;;;;17.45;2.92;;;;;;;;;;5145104;27;20053;-56
2023/12/11 08:23:40;;;;;;;15.45;3.67;;;;;;;;;;5144807;27;20055;-55
2023/12/11 08:26:07;;;;;;;13.52;3.35;;;;;;;;;;5145235;27;20533;-54
2023/12/11 08:28:33;;;;;;;20.63;4.18;;;;;;;;;;5145059;27;20047;-56
2023/12/11 08:31:00;;;;;;;13.02;3.28;;;;;;;;;;5146024;27;20066;-56
2023/12/11 08:33:26;;;;;;;16.88;3.15;;;;;;;;;;5144166;27;20055;-56
2023/12/11 08:35:53;;;;;;;19.65;4.35;;;;;;;;;;5144066;27;20054;-55
2023/12/11 08:38:22;;;;;;;14.45;3.10;;;;;;;;;;5150719;27;20134;-55
2023/12/11 08:40:49;;;;;;;16.10;4.20;;;;;;;;;;5166922;27;20050;-56
2023/12/11 08:43:16;;;;;;;24.80;3.55;;;;;;;;;;5158551;27;20055;-57
2023/12/11 08:45:43;;;;;;;16.30;3.63;;;;;;;;;;5144502;27;20132;-57
2023/12/11 08:48:09;;;;;;;18.65;3.60;;;;;;;;;;5144200;27;20140;-56
2023/12/11 08:50:36;;;;;;;21.75;3.17;;;;;;;;;;5145216;27;20047;-56
2023/12/11 08:53:03;;;;;;;17.67;3.25;;;;;;;;;;5145306;27;20047;-55
2023/12/11 08:55:30;;;;;;;12.63;2.90;;;;;;;;;;5145019;27;20468;-55
2023/12/11 08:57:56;;;;;;;12.43;2.85;;;;;;;;;;5145198;27;20062;-57
2023/12/11 09:00:23;;;;;;;17.75;3.40;;;;;;;;;;5145209;27;20075;-55
2023/12/11 09:02:51;;;;;;;20.30;3.97;;;;;;;;;;5144838;27;20536;-56
2023/12/11 09:05:17;;;;;;;16.60;3.58;;;;;;;;;;5144885;27;20047;-55
2023/12/11 09:07:44;;;;;;;16.88;3.40;;;;;;;;;;5145003;27;20055;-55
2023/12/11 09:10:11;;;;;;;14.07;3.58;;;;;;;;;;5145119;27;20641;-56
2023/12/11 09:12:37;;;;;;;12.85;3.35;;;;;;;;;;5144445;27;20086;-55
2023/12/11 09:15:04;;;;;;;24.35;5.20;;;;;;;;;;5145457;27;20227;-56
2023/12/11 09:17:31;;;;;;;22.90;4.60;;;;;;;;;;5144329;27;20062;-56
2023/12/11 09:19:58;;;;;;;18.27;3.67;;;;;;;;;;5143414;27;20057;-56
2023/12/11 09:22:25;;;;;;;23.17;4.47;;;;;;;;;;5144322;27;20051;-56
2023/12/11 09:24:51;;;;;;;15.00;3.83;;;;;;;;;;5144955;27;20054;-55
2023/12/11 09:27:18;;;;;;;21.92;4.93;;;;;;;;;;5145152;27;20062;-55
2023/12/11 09:29:48;;;;;;;25.95;4.90;;;;;;;;;;5144866;27;20061;-56
2023/12/11 09:32:18;;;;;;;29.63;4.78;;;;;;;;;;5143325;27;20051;-56
2023/12/11 09:34:44;;;;;;;18.85;4.25;;;;;;;;;;5145166;27;20055;-57
2023/12/11 09:37:11;;;;;;;27.02;4.78;;;;;;;;;;5143283;27;20589;-56
2023/12/11 09:39:38;;;;;;;25.17;4.13;;;;;;;;;;5143312;27;20158;-57
2023/12/11 09:42:05;;;;;;;11.15;3.20;;;;;;;;;;5144185;27;20051;-56
2023/12/11 09:44:32;;;;;;;20.77;3.80;;;;;;;;;;5143872;27;20059;-55
2023/12/11 09:47:01;;;;;;;24.55;3.47;;;;;;;;;;5143354;27;20063;-55
2023/12/11 09:49:28;;;;;;;17.45;3.40;;;;;;;;;;5142437;27;20135;-59
2023/12/11 09:51:55;;;;;;;26.23;3.75;;;;;;;;;;5144096;27;20493;-56
2023/12/11 09:54:21;;;;;;;20.02;4.47;;;;;;;;;;5144664;27;20113;-57
2023/12/11 09:56:48;;;;;;;12.35;3.90;;;;;;;;;;5144465;27;20066;-57
2023/12/11 09:59:15;;;;;;;18.85;3.25;;;;;;;;;;5144337;27;20421;-57
2023/12/11 10:01:41;;;;;;;18.80;3.45;;;;;;;;;;5143327;27;20055;-56
2023/12/11 10:04:08;;;;;;;23.95;4.55;;;;;;;;;;5143897;27;20055;-56
2023/12/11 10:06:34;;;;;;;23.40;5.00;;;;;;;;;;5143653;27;20094;-57
2023/12/11 10:09:01;;;;;;;14.05;3.28;;;;;;;;;;5143699;27;20055;-57
2023/12/11 10:11:28;;;;;;;24.17;3.97;;;;;;;;;;5143985;27;20062;-57
2023/12/11 10:13:54;;;;;;;23.67;3.47;;;;;;;;;;5144105;27;20054;-57
2023/12/11 10:16:28;;;;;;;19.50;4.65;;;;;;;;;;5123130;27;20055;-56
2023/12/11 10:18:55;;;;;;;23.23;2.85;;;;;;;;;;5157902;27;20591;-56
2023/12/11 10:21:25;;;;;;;18.63;3.45;;;;;;;;;;5164963;27;20047;-55
2023/12/11 10:24:00;;;;;;;19.42;4.72;;;;;;;;;;5144270;27;20047;-56
2023/12/11 10:26:27;;;;;;;9.98;2.72;;;;;;;;;;5142836;27;20056;-57
2023/12/11 10:28:54;;;;;;;18.73;3.70;;;;;;;;;;5143813;27;20055;-56
2023/12/11 10:31:33;;;;;;;11.43;3.00;;;;;;;;;;5142979;27;20051;-57
2023/12/11 10:34:03;;;;;;;19.52;2.67;;;;;;;;;;5142976;27;20059;-56
2023/12/11 10:36:30;;;;;;;17.27;3.97;;;;;;;;;;5143365;27;20051;-54
2023/12/11 10:39:06;;;;;;;14.68;2.92;;;;;;;;;;5143368;27;20044;-56
2023/12/11 10:41:32;;;;;;;18.73;3.42;;;;;;;;;;5143395;27;20051;-56
2023/12/11 10:43:59;;;;;;;10.70;2.28;;;;;;;;;;5142837;27;20051;-56
2023/12/11 10:46:42;;;;;;;16.60;2.70;;;;;;;;;;5143667;27;20047;-58
2023/12/11 10:49:09;;;;;;;14.10;2.55;;;;;;;;;;5143131;27;20062;-56
2023/12/11 10:51:36;;;;;;;15.75;2.30;;;;;;;;;;5142822;27;20051;-57
2023/12/11 10:54:04;;;;;;;18.88;2.53;;;;;;;;;;5143484;27;20054;-56
2023/12/11 10:56:30;;;;;;;12.00;2.83;;;;;;;;;;5143902;27;20051;-55
2023/12/11 10:58:58;;;;;;;22.17;3.15;;;;;;;;;;5142438;27;20054;-58
2023/12/11 11:01:24;;;;;;;20.35;3.58;;;;;;;;;;5146026;27;20112;-57
2023/12/11 11:03:51;;;;;;;16.33;2.47;;;;;;;;;;5147201;27;20083;-56
2023/12/11 11:06:19;;;;;;;11.25;2.40;;;;;;;;;;5146873;27;20054;-57
2023/12/11 11:08:55;;;;;;;10.63;2.35;;;;;;;;;;5146434;27;20043;-57
2023/12/11 11:11:31;;;;;;;10.32;2.15;;;;;;;;;;5147580;27;20043;-56
2023/12/11 11:14:16;;;;;;;17.77;3.45;;;;;;;;;;5147362;27;20520;-57
2023/12/11 11:16:52;;;;;;;10.35;2.67;;;;;;;;;;5147165;27;20108;-58
2023/12/11 11:19:19;;;;;;;16.67;2.75;;;;;;;;;;5146945;27;20051;-56
2023/12/11 11:22:06;;;;;;;13.90;2.45;;;;;;;;;;5147129;27;20062;-56
2023/12/11 11:24:36;;;;;;;14.18;2.85;;;;;;;;;;5136705;27;20501;-58
2023/12/11 11:27:24;;;;;;;9.70;2.75;;;;;;;;;;5147286;27;20537;-57
2023/12/11 11:29:51;;;;;;;16.70;2.65;;;;;;;;;;5147012;27;20055;-57
2023/12/11 11:32:18;;;;;;;14.15;2.22;;;;;;;;;;5145465;27;20573;-56
2023/12/11 11:34:44;;;;;;;14.93;2.65;;;;;;;;;;5147261;27;20059;-56
2023/12/11 11:37:17;;;;;;;7.75;1.88;;;;;;;;;;5147334;27;20055;-57
2023/12/11 11:39:58;;;;;;;18.05;2.90;;;;;;;;;;5147525;27;20144;-57
2023/12/11 11:42:25;;;;;;;7.18;1.92;;;;;;;;;;5146483;27;20050;-57
2023/12/11 11:44:54;;;;;;;9.77;1.60;;;;;;;;;;5147414;27;20500;-58
2023/12/11 11:47:20;;;;;;;7.75;1.70;;;;;;;;;;5147757;27;20086;-57
2023/12/11 11:49:46;;;;;;;6.22;1.45;;;;;;;;;;5146891;27;20142;-56
2023/12/11 11:52:14;;;;;;;7.80;1.60;;;;;;;;;;5147345;27;20047;-57
2023/12/11 11:54:40;;;;;;;7.78;1.92;;;;;;;;;;5146527;27;20055;-54
2023/12/11 11:57:07;;;;;;;5.75;1.50;;;;;;;;;;5145458;27;20047;-56
2023/12/11 11:59:44;;;;;;;9.90;1.75;;;;;;;;;;5146899;27;20055;-57
2023/12/11 12:02:10;;;;;;;10.40;2.13;;;;;;;;;;5146397;27;20047;-57
2023/12/11 12:04:36;;;;;;;11.13;2.20;;;;;;;;;;5145379;27;20050;-58
2023/12/11 12:07:04;;;;;;;13.52;1.58;;;;;;;;;;5146119;27;20058;-57
2023/12/11 12:09:30;;;;;;;12.25;1.70;;;;;;;;;;5146313;27;20047;-58
2023/12/11 12:11:58;;;;;;;6.60;1.50;;;;;;;;;;5144910;27;20382;-58
2023/12/11 12:14:25;;;;;;;6.38;1.88;;;;;;;;;;5146202;27;20051;-57
2023/12/11 12:16:52;;;;;;;10.00;2.40;;;;;;;;;;5146971;27;20047;-57
2023/12/11 12:19:34;;;;;;;6.13;1.35;;;;;;;;;;5146829;27;20059;-58
2023/12/11 12:22:03;;;;;;;11.05;2.30;;;;;;;;;;5146145;27;20138;-58
2023/12/11 12:24:30;;;;;;;8.45;2.05;;;;;;;;;;5146212;27;20058;-57
2023/12/11 12:26:59;;;;;;;8.95;1.80;;;;;;;;;;5145967;27;20055;-58
2023/12/11 12:29:26;;;;;;;9.55;1.67;;;;;;;;;;5146205;27;20084;-56
2023/12/11 12:31:53;;;;;;;13.43;2.97;;;;;;;;;;5146256;27;20799;-56
2023/12/11 12:34:20;;;;;;;9.35;2.28;;;;;;;;;;5146116;27;20505;-58
2023/12/11 12:36:46;;;;;;;11.95;2.38;;;;;;;;;;5146306;27;20055;-56
2023/12/11 12:39:13;;;;;;;5.88;2.22;;;;;;;;;;5146007;27;20957;-56
2023/12/11 12:41:41;;;;;;;7.93;2.50;;;;;;;;;;5145686;27;20138;-57
2023/12/11 12:44:07;;;;;;;10.43;2.28;;;;;;;;;;5146267;27;20134;-58
2023/12/11 12:46:40;;;;;;;9.98;2.03;;;;;;;;;;5145157;27;20132;-57
2023/12/11 12:49:10;;;;;;;16.15;2.40;;;;;;;;;;5145468;27;20602;-58
2023/12/11 12:51:50;;;;;;;11.15;1.92;;;;;;;;;;5144979;27;20074;-55
2023/12/11 12:54:17;;;;;;;13.50;2.25;;;;;;;;;;5145377;27;20133;-57
2023/12/11 12:56:44;;;;;;;9.82;2.58;;;;;;;;;;5146006;27;20560;-58
2023/12/11 12:59:11;;;;;;;6.80;1.75;;;;;;;;;;5145874;27;20059;-57
2023/12/11 13:01:39;;;;;;;10.52;2.10;;;;;;;;;;5145348;27;20062;-58
2023/12/11 13:04:07;;;;;;;12.70;3.55;;;;;;;;;;5145493;27;20055;-56
2023/12/11 13:06:34;;;;;;;8.25;3.00;;;;;;;;;;5155803;27;20070;-57
2023/12/11 13:09:01;;;;;;;10.65;2.22;;;;;;;;;;5152184;27;20107;-57
2023/12/11 13:11:46;;;;;;;7.38;1.75;;;;;;;;;;5143810;27;20047;-58
2023/12/11 13:14:13;;;;;;;5.82;1.70;;;;;;;;;;5146303;27;20083;-58
2023/12/11 13:16:43;;;;;;;9.82;2.17;;;;;;;;;;5145791;27;20054;-57
2023/12/11 13:19:14;;;;;;;11.17;2.70;;;;;;;;;;5145421;27;20929;-57
2023/12/11 13:21:41;;;;;;;11.27;2.72;;;;;;;;;;5145062;27;20372;-56
2023/12/11 13:24:08;;;;;;;13.55;2.13;;;;;;;;;;5144737;27;20062;-57
2023/12/11 13:26:35;;;;;;;10.65;2.17;;;;;;;;;;5145146;27;20048;-58
2023/12/11 13:29:03;;;;;;;8.40;2.20;;;;;;;;;;5145438;27;20140;-58
2023/12/11 13:31:29;;;;;;;11.30;2.25;;;;;;;;;;5144910;27;20058;-56
2023/12/11 13:33:56;;;;;;;6.25;2.00;;;;;;;;;;5144591;27;20055;-58
2023/12/11 13:36:22;;;;;;;9.43;1.75;;;;;;;;;;5145778;27;20147;-57
2023/12/11 13:38:49;;;;;;;9.20;2.00;;;;;;;;;;5159076;27;20055;-57
2023/12/11 13:41:15;;;;;;;7.70;2.10;;;;;;;;;;5166588;27;20119;-56
2023/12/11 13:43:42;;;;;;;7.45;2.17;;;;;;;;;;5161938;27;20103;-58
2023/12/11 13:46:09;;;;;;;8.60;1.90;;;;;;;;;;5148437;27;20047;-58
2023/12/11 13:48:36;;;;;;;9.25;2.33;;;;;;;;;;5144965;27;20051;-57
2023/12/11 13:51:05;;;;;;;6.68;2.33;;;;;;;;;;5144397;27;20051;-57
2023/12/11 13:53:31;;;;;;;8.85;2.10;;;;;;;;;;5143299;27;20053;-56
2023/12/11 13:55:58;;;;;;;10.50;2.28;;;;;;;;;;5165699;27;20082;-57
2023/12/11 13:58:24;;;;;;;12.18;2.15;;;;;;;;;;5154451;27;20134;-58
2023/12/11 14:00:51;;;;;;;11.27;2.22;;;;;;;;;;5145010;27;20081;-57
2023/12/11 14:03:21;;;;;;;9.15;2.67;;;;;;;;;;5143627;27;20079;-57
2023/12/11 14:05:50;;;;;;;11.95;2.42;;;;;;;;;;5144318;27;20452;-57
2023/12/11 14:08:17;;;;;;;12.07;3.10;;;;;;;;;;5143497;27;20083;-58
2023/12/11 14:10:44;;;;;;;11.38;2.67;;;;;;;;;;5144447;27;20097;-57
2023/12/11 14:13:12;;;;;;;14.68;2.67;;;;;;;;;;5145188;27;20096;-58
2023/12/11 14:15:40;;;;;;;9.20;2.60;;;;;;;;;;5144777;27;20047;-56
2023/12/11 14:18:07;;;;;;;8.48;2.28;;;;;;;;;;5144411;27;20166;-54
2023/12/11 14:20:35;;;;;;;4.07;1.92;;;;;;;;;;5144953;27;20089;-54
2023/12/11 14:23:01;;;;;;;10.88;2.58;;;;;;;;;;5144101;27;20062;-56
2023/12/11 14:25:28;;;;;;;13.57;2.65;;;;;;;;;;5144140;27;20453;-56
2023/12/11 14:27:55;;;;;;;13.68;2.38;;;;;;;;;;5144546;27;20127;-57
2023/12/11 14:30:21;;;;;;;10.38;3.70;;;;;;;;;;5144847;27;20050;-58
2023/12/11 14:32:48;;;;;;;14.98;2.67;;;;;;;;;;5143863;27;20055;-58